sensor_id;sensor_type;location;lat;lon;timestamp;temperature;humidity
42199;DHT22;27868;45.184;5.786;2022-09-09T00:00:11;22.40;68.10
42199;DHT22;27868;45.184;5.786;2022-09-09T00:03:12;22.40;67.80
42199;DHT22;27868;45.184;5.786;2022-09-09T00:06:18;22.40;67.70
42199;DHT22;27868;45.184;5.786;2022-09-09T00:09:17;22.40;67.50
42199;DHT22;27868;45.184;5.786;2022-09-09T00:12:15;22.30;67.50
42199;DHT22;27868;45.184;5.786;2022-09-09T00:15:07;22.30;67.60
42199;DHT22;27868;45.184;5.786;2022-09-09T00:18:08;22.30;67.70
42199;DHT22;27868;45.184;5.786;2022-09-09T00:21:05;22.30;67.50
42199;DHT22;27868;45.184;5.786;2022-09-09T00:23:53;22.20;67.20
42199;DHT22;27868;45.184;5.786;2022-09-09T00:26:43;22.20;67.60
42199;DHT22;27868;45.184;5.786;2022-09-09T00:29:45;22.20;67.60
42199;DHT22;27868;45.184;5.786;2022-09-09T00:32:32;22.20;67.40
42199;DHT22;27868;45.184;5.786;2022-09-09T00:35:22;22.20;68.30
42199;DHT22;27868;45.184;5.786;2022-09-09T00:38:17;22.20;67.80
42199;DHT22;27868;45.184;5.786;2022-09-09T00:41:35;22.10;67.70
42199;DHT22;27868;45.184;5.786;2022-09-09T00:47:39;22.10;68.10
42199;DHT22;27868;45.184;5.786;2022-09-09T00:53:31;22.10;67.80
42199;DHT22;27868;45.184;5.786;2022-09-09T00:56:25;22.10;67.60
42199;DHT22;27868;45.184;5.786;2022-09-09T01:01:55;22.10;67.80
42199;DHT22;27868;45.184;5.786;2022-09-09T01:04:40;22.00;67.60
42199;DHT22;27868;45.184;5.786;2022-09-09T01:07:27;22.00;67.70
42199;DHT22;27868;45.184;5.786;2022-09-09T01:10:25;22.00;67.90
42199;DHT22;27868;45.184;5.786;2022-09-09T01:13:23;22.00;67.80
42199;DHT22;27868;45.184;5.786;2022-09-09T01:16:10;21.90;68.00
42199;DHT22;27868;45.184;5.786;2022-09-09T01:18:56;21.90;68.20
42199;DHT22;27868;45.184;5.786;2022-09-09T01:21:54;21.90;68.30
42199;DHT22;27868;45.184;5.786;2022-09-09T01:27:55;21.90;68.60
42199;DHT22;27868;45.184;5.786;2022-09-09T01:30:41;21.80;68.90
42199;DHT22;27868;45.184;5.786;2022-09-09T01:33:26;21.80;69.30
42199;DHT22;27868;45.184;5.786;2022-09-09T01:36:21;21.80;69.40
42199;DHT22;27868;45.184;5.786;2022-09-09T01:39:08;21.80;70.00
42199;DHT22;27868;45.184;5.786;2022-09-09T01:41:54;21.80;70.30
42199;DHT22;27868;45.184;5.786;2022-09-09T01:44:40;21.80;70.60
42199;DHT22;27868;45.184;5.786;2022-09-09T01:47:25;21.80;70.50
42199;DHT22;27868;45.184;5.786;2022-09-09T01:50:13;21.80;70.70
42199;DHT22;27868;45.184;5.786;2022-09-09T01:53:01;21.80;71.00
42199;DHT22;27868;45.184;5.786;2022-09-09T02:00:04;21.70;70.80
42199;DHT22;27868;45.184;5.786;2022-09-09T02:09:11;21.70;71.40
42199;DHT22;27868;45.184;5.786;2022-09-09T02:12:14;21.60;71.30
42199;DHT22;27868;45.184;5.786;2022-09-09T02:15:11;21.60;71.10
42199;DHT22;27868;45.184;5.786;2022-09-09T02:18:01;21.60;71.00
42199;DHT22;27868;45.184;5.786;2022-09-09T02:20:47;21.60;70.80
42199;DHT22;27868;45.184;5.786;2022-09-09T02:23:32;21.50;71.30
42199;DHT22;27868;45.184;5.786;2022-09-09T02:26:19;21.50;71.20
42199;DHT22;27868;45.184;5.786;2022-09-09T02:29:12;21.50;70.60
42199;DHT22;27868;45.184;5.786;2022-09-09T02:32:02;21.50;70.40
42199;DHT22;27868;45.184;5.786;2022-09-09T02:35:02;21.50;70.50
42199;DHT22;27868;45.184;5.786;2022-09-09T02:37:49;21.50;70.50
42199;DHT22;27868;45.184;5.786;2022-09-09T02:40:36;21.40;70.40
42199;DHT22;27868;45.184;5.786;2022-09-09T02:43:20;21.30;70.30
42199;DHT22;27868;45.184;5.786;2022-09-09T02:47:11;21.30;70.50
42199;DHT22;27868;45.184;5.786;2022-09-09T02:55:39;21.20;70.70
42199;DHT22;27868;45.184;5.786;2022-09-09T02:58:26;21.20;70.50
42199;DHT22;27868;45.184;5.786;2022-09-09T03:01:12;21.10;70.40
42199;DHT22;27868;45.184;5.786;2022-09-09T03:03:57;21.10;70.40
42199;DHT22;27868;45.184;5.786;2022-09-09T03:06:41;21.10;70.50
42199;DHT22;27868;45.184;5.786;2022-09-09T03:09:26;21.10;70.60
42199;DHT22;27868;45.184;5.786;2022-09-09T03:12:10;21.10;70.40
42199;DHT22;27868;45.184;5.786;2022-09-09T03:14:55;21.00;71.20
42199;DHT22;27868;45.184;5.786;2022-09-09T03:17:39;21.10;70.60
42199;DHT22;27868;45.184;5.786;2022-09-09T03:20:25;21.00;70.80
42199;DHT22;27868;45.184;5.786;2022-09-09T03:23:11;21.00;70.80
42199;DHT22;27868;45.184;5.786;2022-09-09T03:25:57;21.00;70.60
42199;DHT22;27868;45.184;5.786;2022-09-09T03:28:43;21.00;70.60
42199;DHT22;27868;45.184;5.786;2022-09-09T03:31:29;20.90;70.70
42199;DHT22;27868;45.184;5.786;2022-09-09T03:34:14;20.90;70.80
42199;DHT22;27868;45.184;5.786;2022-09-09T03:36:59;20.90;70.90
42199;DHT22;27868;45.184;5.786;2022-09-09T03:39:43;20.90;70.90
42199;DHT22;27868;45.184;5.786;2022-09-09T03:42:28;20.90;70.80
42199;DHT22;27868;45.184;5.786;2022-09-09T03:45:13;20.80;70.50
42199;DHT22;27868;45.184;5.786;2022-09-09T03:47:57;20.80;70.50
42199;DHT22;27868;45.184;5.786;2022-09-09T03:50:46;20.80;70.60
42199;DHT22;27868;45.184;5.786;2022-09-09T03:53:31;20.80;70.50
42199;DHT22;27868;45.184;5.786;2022-09-09T03:56:17;20.70;70.70
42199;DHT22;27868;45.184;5.786;2022-09-09T03:59:03;20.70;70.50
42199;DHT22;27868;45.184;5.786;2022-09-09T04:01:48;20.70;70.50
42199;DHT22;27868;45.184;5.786;2022-09-09T04:04:33;20.70;70.30
42199;DHT22;27868;45.184;5.786;2022-09-09T04:07:17;20.70;70.40
42199;DHT22;27868;45.184;5.786;2022-09-09T04:10:01;20.70;70.50
42199;DHT22;27868;45.184;5.786;2022-09-09T04:12:46;20.70;70.60
42199;DHT22;27868;45.184;5.786;2022-09-09T04:15:32;20.60;70.80
42199;DHT22;27868;45.184;5.786;2022-09-09T04:18:17;20.60;71.00
42199;DHT22;27868;45.184;5.786;2022-09-09T04:21:02;20.60;71.20
42199;DHT22;27868;45.184;5.786;2022-09-09T04:23:48;20.50;71.50
42199;DHT22;27868;45.184;5.786;2022-09-09T04:26:33;20.50;71.60
42199;DHT22;27868;45.184;5.786;2022-09-09T04:29:18;20.50;71.80
42199;DHT22;27868;45.184;5.786;2022-09-09T04:32:02;20.50;72.00
42199;DHT22;27868;45.184;5.786;2022-09-09T04:34:47;20.40;71.90
42199;DHT22;27868;45.184;5.786;2022-09-09T04:37:32;20.40;71.80
42199;DHT22;27868;45.184;5.786;2022-09-09T04:40:17;20.40;71.80
42199;DHT22;27868;45.184;5.786;2022-09-09T04:43:02;20.40;71.70
42199;DHT22;27868;45.184;5.786;2022-09-09T04:45:51;20.40;71.70
42199;DHT22;27868;45.184;5.786;2022-09-09T04:48:35;20.40;71.90
42199;DHT22;27868;45.184;5.786;2022-09-09T04:51:20;20.30;71.70
42199;DHT22;27868;45.184;5.786;2022-09-09T04:54:04;20.30;71.50
42199;DHT22;27868;45.184;5.786;2022-09-09T04:56:50;20.30;71.30
42199;DHT22;27868;45.184;5.786;2022-09-09T04:59:35;20.30;71.50
42199;DHT22;27868;45.184;5.786;2022-09-09T05:02:19;20.30;71.70
42199;DHT22;27868;45.184;5.786;2022-09-09T05:05:05;20.30;71.50
42199;DHT22;27868;45.184;5.786;2022-09-09T05:07:50;20.30;71.80
42199;DHT22;27868;45.184;5.786;2022-09-09T05:10:37;20.20;71.60
42199;DHT22;27868;45.184;5.786;2022-09-09T05:13:22;20.20;71.60
42199;DHT22;27868;45.184;5.786;2022-09-09T05:16:07;20.20;71.60
42199;DHT22;27868;45.184;5.786;2022-09-09T05:18:55;20.20;71.80
42199;DHT22;27868;45.184;5.786;2022-09-09T05:21:40;20.20;71.90
42199;DHT22;27868;45.184;5.786;2022-09-09T05:24:26;20.20;71.40
42199;DHT22;27868;45.184;5.786;2022-09-09T05:27:10;20.10;71.90
42199;DHT22;27868;45.184;5.786;2022-09-09T05:29:56;20.10;72.00
42199;DHT22;27868;45.184;5.786;2022-09-09T05:32:41;20.10;72.10
42199;DHT22;27868;45.184;5.786;2022-09-09T05:35:26;20.10;72.10
42199;DHT22;27868;45.184;5.786;2022-09-09T05:38:11;20.10;72.10
42199;DHT22;27868;45.184;5.786;2022-09-09T05:40:57;20.00;72.00
42199;DHT22;27868;45.184;5.786;2022-09-09T05:43:42;20.10;72.20
42199;DHT22;27868;45.184;5.786;2022-09-09T05:46:28;20.00;72.40
42199;DHT22;27868;45.184;5.786;2022-09-09T05:49:13;20.00;72.50
42199;DHT22;27868;45.184;5.786;2022-09-09T05:52:00;20.00;72.40
42199;DHT22;27868;45.184;5.786;2022-09-09T05:54:45;20.00;72.60
42199;DHT22;27868;45.184;5.786;2022-09-09T05:57:30;20.00;72.60
42199;DHT22;27868;45.184;5.786;2022-09-09T06:00:15;20.00;72.60
42199;DHT22;27868;45.184;5.786;2022-09-09T06:03:00;20.00;72.60
42199;DHT22;27868;45.184;5.786;2022-09-09T06:05:45;20.00;72.60
42199;DHT22;27868;45.184;5.786;2022-09-09T06:08:29;20.00;72.60
42199;DHT22;27868;45.184;5.786;2022-09-09T06:11:27;19.90;72.80
42199;DHT22;27868;45.184;5.786;2022-09-09T06:14:11;20.00;72.90
42199;DHT22;27868;45.184;5.786;2022-09-09T06:16:57;19.90;72.90
42199;DHT22;27868;45.184;5.786;2022-09-09T06:19:41;19.90;73.30
42199;DHT22;27868;45.184;5.786;2022-09-09T06:22:26;19.90;73.30
42199;DHT22;27868;45.184;5.786;2022-09-09T06:25:10;19.90;73.30
42199;DHT22;27868;45.184;5.786;2022-09-09T06:27:55;19.90;73.30
42199;DHT22;27868;45.184;5.786;2022-09-09T06:30:39;19.90;73.50
42199;DHT22;27868;45.184;5.786;2022-09-09T06:33:25;19.90;73.50
42199;DHT22;27868;45.184;5.786;2022-09-09T06:36:15;20.00;73.50
42199;DHT22;27868;45.184;5.786;2022-09-09T06:39:00;19.90;73.50
42199;DHT22;27868;45.184;5.786;2022-09-09T06:41:46;20.00;73.80
42199;DHT22;27868;45.184;5.786;2022-09-09T06:44:31;20.00;73.90
42199;DHT22;27868;45.184;5.786;2022-09-09T06:47:17;20.00;73.90
42199;DHT22;27868;45.184;5.786;2022-09-09T06:50:03;20.10;74.00
42199;DHT22;27868;45.184;5.786;2022-09-09T06:52:47;20.10;73.80
42199;DHT22;27868;45.184;5.786;2022-09-09T06:55:32;20.10;73.90
42199;DHT22;27868;45.184;5.786;2022-09-09T06:58:16;20.20;73.80
42199;DHT22;27868;45.184;5.786;2022-09-09T07:01:03;20.10;74.00
42199;DHT22;27868;45.184;5.786;2022-09-09T07:03:50;20.20;74.10
42199;DHT22;27868;45.184;5.786;2022-09-09T07:06:37;20.30;74.00
42199;DHT22;27868;45.184;5.786;2022-09-09T07:09:23;20.30;73.50
42199;DHT22;27868;45.184;5.786;2022-09-09T07:12:08;20.30;73.30
42199;DHT22;27868;45.184;5.786;2022-09-09T07:14:52;20.30;72.80
42199;DHT22;27868;45.184;5.786;2022-09-09T07:17:37;20.30;73.10
42199;DHT22;27868;45.184;5.786;2022-09-09T07:20:22;20.40;73.20
42199;DHT22;27868;45.184;5.786;2022-09-09T07:23:06;20.40;73.30
42199;DHT22;27868;45.184;5.786;2022-09-09T07:25:51;20.40;72.90
42199;DHT22;27868;45.184;5.786;2022-09-09T07:28:38;20.40;72.60
42199;DHT22;27868;45.184;5.786;2022-09-09T07:31:28;20.40;72.40
42199;DHT22;27868;45.184;5.786;2022-09-09T07:34:15;20.40;72.50
42199;DHT22;27868;45.184;5.786;2022-09-09T07:36:59;20.40;72.50
42199;DHT22;27868;45.184;5.786;2022-09-09T07:39:44;20.40;72.00
42199;DHT22;27868;45.184;5.786;2022-09-09T07:42:29;20.50;72.00
42199;DHT22;27868;45.184;5.786;2022-09-09T07:45:14;20.50;71.90
42199;DHT22;27868;45.184;5.786;2022-09-09T07:47:59;20.50;71.90
42199;DHT22;27868;45.184;5.786;2022-09-09T07:50:44;20.60;71.70
42199;DHT22;27868;45.184;5.786;2022-09-09T07:53:29;20.60;71.70
42199;DHT22;27868;45.184;5.786;2022-09-09T07:56:18;20.60;71.40
42199;DHT22;27868;45.184;5.786;2022-09-09T07:59:03;20.60;71.10
42199;DHT22;27868;45.184;5.786;2022-09-09T08:01:51;20.60;71.00
42199;DHT22;27868;45.184;5.786;2022-09-09T08:04:39;20.60;70.90
42199;DHT22;27868;45.184;5.786;2022-09-09T08:07:24;20.60;70.90
42199;DHT22;27868;45.184;5.786;2022-09-09T08:10:09;20.60;70.90
42199;DHT22;27868;45.184;5.786;2022-09-09T08:12:53;20.60;70.70
42199;DHT22;27868;45.184;5.786;2022-09-09T08:15:38;20.70;71.00
42199;DHT22;27868;45.184;5.786;2022-09-09T08:18:23;20.70;71.00
42199;DHT22;27868;45.184;5.786;2022-09-09T08:21:13;20.70;70.60
42199;DHT22;27868;45.184;5.786;2022-09-09T08:24:00;20.70;70.50
42199;DHT22;27868;45.184;5.786;2022-09-09T08:26:47;20.80;70.10
42199;DHT22;27868;45.184;5.786;2022-09-09T08:29:33;20.80;70.00
42199;DHT22;27868;45.184;5.786;2022-09-09T08:32:18;20.80;70.00
42199;DHT22;27868;45.184;5.786;2022-09-09T08:35:04;20.90;69.80
42199;DHT22;27868;45.184;5.786;2022-09-09T08:37:54;20.90;69.80
42199;DHT22;27868;45.184;5.786;2022-09-09T08:40:45;20.90;69.50
42199;DHT22;27868;45.184;5.786;2022-09-09T08:43:33;21.00;69.40
42199;DHT22;27868;45.184;5.786;2022-09-09T08:46:25;20.90;69.40
42199;DHT22;27868;45.184;5.786;2022-09-09T08:52:31;21.00;69.10
42199;DHT22;27868;45.184;5.786;2022-09-09T08:55:46;21.10;68.80
42199;DHT22;27868;45.184;5.786;2022-09-09T08:58:34;21.10;68.90
42199;DHT22;27868;45.184;5.786;2022-09-09T09:01:46;21.10;68.90
42199;DHT22;27868;45.184;5.786;2022-09-09T09:11:02;21.20;68.80
42199;DHT22;27868;45.184;5.786;2022-09-09T09:13:54;21.20;68.40
42199;DHT22;27868;45.184;5.786;2022-09-09T09:19:35;21.30;68.40
42199;DHT22;27868;45.184;5.786;2022-09-09T09:22:43;21.30;67.90
42199;DHT22;27868;45.184;5.786;2022-09-09T09:25:38;21.30;67.80
42199;DHT22;27868;45.184;5.786;2022-09-09T09:28:27;21.30;67.60
42199;DHT22;27868;45.184;5.786;2022-09-09T09:31:13;21.40;67.40
42199;DHT22;27868;45.184;5.786;2022-09-09T09:33:58;21.40;68.20
42199;DHT22;27868;45.184;5.786;2022-09-09T09:36:54;21.40;67.00
42199;DHT22;27868;45.184;5.786;2022-09-09T09:39:40;21.50;67.00
42199;DHT22;27868;45.184;5.786;2022-09-09T09:42:25;21.50;65.90
42199;DHT22;27868;45.184;5.786;2022-09-09T09:45:42;21.60;65.50
42199;DHT22;27868;45.184;5.786;2022-09-09T09:48:29;21.60;65.60
42199;DHT22;27868;45.184;5.786;2022-09-09T09:51:16;21.60;65.30
42199;DHT22;27868;45.184;5.786;2022-09-09T09:57:13;21.70;64.50
42199;DHT22;27868;45.184;5.786;2022-09-09T10:00:19;21.80;63.90
42199;DHT22;27868;45.184;5.786;2022-09-09T10:06:07;21.80;63.40
42199;DHT22;27868;45.184;5.786;2022-09-09T10:08:51;21.80;63.20
42199;DHT22;27868;45.184;5.786;2022-09-09T10:15:13;21.90;62.40
42199;DHT22;27868;45.184;5.786;2022-09-09T10:21:28;22.00;63.40
42199;DHT22;27868;45.184;5.786;2022-09-09T10:30:22;22.20;61.50
42199;DHT22;27868;45.184;5.786;2022-09-09T10:33:13;22.20;61.50
42199;DHT22;27868;45.184;5.786;2022-09-09T10:39:05;22.30;60.30
42199;DHT22;27868;45.184;5.786;2022-09-09T10:42:05;22.30;60.50
42199;DHT22;27868;45.184;5.786;2022-09-09T10:48:28;22.40;60.90
42199;DHT22;27868;45.184;5.786;2022-09-09T11:03:06;22.70;58.60
42199;DHT22;27868;45.184;5.786;2022-09-09T11:06:00;22.80;58.90
42199;DHT22;27868;45.184;5.786;2022-09-09T11:08:47;22.80;58.90
42199;DHT22;27868;45.184;5.786;2022-09-09T11:11:47;22.90;58.50
42199;DHT22;27868;45.184;5.786;2022-09-09T11:14:41;23.00;58.10
42199;DHT22;27868;45.184;5.786;2022-09-09T11:17:33;23.10;58.30
42199;DHT22;27868;45.184;5.786;2022-09-09T11:20:21;23.20;58.40
42199;DHT22;27868;45.184;5.786;2022-09-09T11:23:13;23.30;57.50
42199;DHT22;27868;45.184;5.786;2022-09-09T11:26:01;23.50;58.30
42199;DHT22;27868;45.184;5.786;2022-09-09T11:38:28;24.10;57.30
42199;DHT22;27868;45.184;5.786;2022-09-09T11:41:15;24.30;57.10
42199;DHT22;27868;45.184;5.786;2022-09-09T11:44:17;24.40;56.30
42199;DHT22;27868;45.184;5.786;2022-09-09T11:47:02;24.60;53.70
42199;DHT22;27868;45.184;5.786;2022-09-09T11:49:46;24.70;54.70
42199;DHT22;27868;45.184;5.786;2022-09-09T11:52:39;24.80;54.30
42199;DHT22;27868;45.184;5.786;2022-09-09T11:55:34;25.00;53.40
42199;DHT22;27868;45.184;5.786;2022-09-09T11:58:22;25.10;52.90
42199;DHT22;27868;45.184;5.786;2022-09-09T12:04:34;25.40;53.40
42199;DHT22;27868;45.184;5.786;2022-09-09T12:07:30;25.50;52.80
42199;DHT22;27868;45.184;5.786;2022-09-09T12:10:35;25.70;51.70
42199;DHT22;27868;45.184;5.786;2022-09-09T12:13:25;25.80;50.90
42199;DHT22;27868;45.184;5.786;2022-09-09T12:16:34;26.00;51.30
42199;DHT22;27868;45.184;5.786;2022-09-09T12:19:21;26.10;51.10
42199;DHT22;27868;45.184;5.786;2022-09-09T12:22:35;26.20;50.60
42199;DHT22;27868;45.184;5.786;2022-09-09T12:25:43;26.30;48.90
42199;DHT22;27868;45.184;5.786;2022-09-09T12:34:47;26.60;50.60
42199;DHT22;27868;45.184;5.786;2022-09-09T12:37:42;26.80;49.80
42199;DHT22;27868;45.184;5.786;2022-09-09T12:40:31;26.90;49.80
42199;DHT22;27868;45.184;5.786;2022-09-09T12:43:22;27.00;49.00
42199;DHT22;27868;45.184;5.786;2022-09-09T12:46:20;27.10;48.60
42199;DHT22;27868;45.184;5.786;2022-09-09T12:49:23;27.20;46.20
42199;DHT22;27868;45.184;5.786;2022-09-09T12:52:26;27.30;48.50
42199;DHT22;27868;45.184;5.786;2022-09-09T12:55:24;27.40;45.50
42199;DHT22;27868;45.184;5.786;2022-09-09T12:58:13;27.50;46.60
42199;DHT22;27868;45.184;5.786;2022-09-09T13:01:03;27.50;44.80
42199;DHT22;27868;45.184;5.786;2022-09-09T13:03:49;27.60;44.90
42199;DHT22;27868;45.184;5.786;2022-09-09T13:06:34;27.60;45.00
42199;DHT22;27868;45.184;5.786;2022-09-09T13:09:20;27.70;46.60
42199;DHT22;27868;45.184;5.786;2022-09-09T13:12:06;27.70;45.90
42199;DHT22;27868;45.184;5.786;2022-09-09T13:14:55;27.80;45.20
42199;DHT22;27868;45.184;5.786;2022-09-09T13:17:40;27.90;46.30
42199;DHT22;27868;45.184;5.786;2022-09-09T13:20:25;27.90;45.90
42199;DHT22;27868;45.184;5.786;2022-09-09T13:23:11;28.00;46.30
42199;DHT22;27868;45.184;5.786;2022-09-09T13:25:59;28.00;45.40
42199;DHT22;27868;45.184;5.786;2022-09-09T13:28:44;28.10;45.60
42199;DHT22;27868;45.184;5.786;2022-09-09T13:31:33;28.20;45.30
42199;DHT22;27868;45.184;5.786;2022-09-09T13:34:31;28.20;44.10
42199;DHT22;27868;45.184;5.786;2022-09-09T13:40:21;28.40;44.40
42199;DHT22;27868;45.184;5.786;2022-09-09T13:43:18;28.40;43.20
42199;DHT22;27868;45.184;5.786;2022-09-09T13:52:10;28.50;41.80
42199;DHT22;27868;45.184;5.786;2022-09-09T13:54:55;28.50;43.30
42199;DHT22;27868;45.184;5.786;2022-09-09T14:00:36;28.60;43.50
42199;DHT22;27868;45.184;5.786;2022-09-09T14:03:22;28.60;43.80
42199;DHT22;27868;45.184;5.786;2022-09-09T14:06:07;28.60;42.60
42199;DHT22;27868;45.184;5.786;2022-09-09T14:08:52;28.70;42.20
42199;DHT22;27868;45.184;5.786;2022-09-09T14:11:36;28.70;43.30
42199;DHT22;27868;45.184;5.786;2022-09-09T14:14:21;28.70;43.00
42199;DHT22;27868;45.184;5.786;2022-09-09T14:17:05;28.80;42.40
42199;DHT22;27868;45.184;5.786;2022-09-09T14:19:51;28.70;42.30
42199;DHT22;27868;45.184;5.786;2022-09-09T14:22:36;28.70;41.80
42199;DHT22;27868;45.184;5.786;2022-09-09T14:25:20;28.80;42.10
42199;DHT22;27868;45.184;5.786;2022-09-09T14:28:05;28.70;42.10
42199;DHT22;27868;45.184;5.786;2022-09-09T14:30:52;28.70;41.70
42199;DHT22;27868;45.184;5.786;2022-09-09T14:33:37;28.70;41.90
42199;DHT22;27868;45.184;5.786;2022-09-09T14:36:21;28.70;40.30
42199;DHT22;27868;45.184;5.786;2022-09-09T14:39:07;28.70;40.60
42199;DHT22;27868;45.184;5.786;2022-09-09T14:41:52;28.70;41.10
42199;DHT22;27868;45.184;5.786;2022-09-09T14:44:37;28.60;39.90
42199;DHT22;27868;45.184;5.786;2022-09-09T14:47:25;28.60;40.80
42199;DHT22;27868;45.184;5.786;2022-09-09T14:51:43;28.60;40.70
42199;DHT22;27868;45.184;5.786;2022-09-09T14:54:27;28.50;41.10
42199;DHT22;27868;45.184;5.786;2022-09-09T14:57:13;28.50;39.60
42199;DHT22;27868;45.184;5.786;2022-09-09T14:59:57;28.50;38.70
42199;DHT22;27868;45.184;5.786;2022-09-09T15:02:42;28.40;38.80
42199;DHT22;27868;45.184;5.786;2022-09-09T15:05:27;28.30;40.10
42199;DHT22;27868;45.184;5.786;2022-09-09T15:08:12;28.30;41.70
42199;DHT22;27868;45.184;5.786;2022-09-09T15:11:04;28.20;41.10
42199;DHT22;27868;45.184;5.786;2022-09-09T15:13:51;28.20;41.00
42199;DHT22;27868;45.184;5.786;2022-09-09T15:16:40;28.10;39.50
42199;DHT22;27868;45.184;5.786;2022-09-09T15:19:24;28.10;39.50
42199;DHT22;27868;45.184;5.786;2022-09-09T15:22:09;28.00;39.60
42199;DHT22;27868;45.184;5.786;2022-09-09T15:24:54;28.00;38.50
42199;DHT22;27868;45.184;5.786;2022-09-09T15:27:39;28.00;38.70
42199;DHT22;27868;45.184;5.786;2022-09-09T15:30:25;27.90;39.90
42199;DHT22;27868;45.184;5.786;2022-09-09T15:33:09;27.90;39.20
42199;DHT22;27868;45.184;5.786;2022-09-09T15:35:54;27.80;39.40
42199;DHT22;27868;45.184;5.786;2022-09-09T15:38:39;27.70;38.60
42199;DHT22;27868;45.184;5.786;2022-09-09T15:41:24;27.70;38.50
42199;DHT22;27868;45.184;5.786;2022-09-09T15:44:10;27.60;38.20
42199;DHT22;27868;45.184;5.786;2022-09-09T15:46:56;27.60;39.00
42199;DHT22;27868;45.184;5.786;2022-09-09T15:49:41;27.50;38.90
42199;DHT22;27868;45.184;5.786;2022-09-09T15:52:25;27.40;38.70
42199;DHT22;27868;45.184;5.786;2022-09-09T15:55:10;27.40;39.50
42199;DHT22;27868;45.184;5.786;2022-09-09T15:57:54;27.40;40.10
42199;DHT22;27868;45.184;5.786;2022-09-09T16:00:39;27.30;39.30
42199;DHT22;27868;45.184;5.786;2022-09-09T16:03:24;27.20;38.40
42199;DHT22;27868;45.184;5.786;2022-09-09T16:06:09;27.20;39.00
42199;DHT22;27868;45.184;5.786;2022-09-09T16:08:56;27.20;39.40
42199;DHT22;27868;45.184;5.786;2022-09-09T16:11:41;27.10;38.60
42199;DHT22;27868;45.184;5.786;2022-09-09T16:14:26;27.10;39.50
42199;DHT22;27868;45.184;5.786;2022-09-09T16:17:11;27.10;39.90
42199;DHT22;27868;45.184;5.786;2022-09-09T16:19:56;27.00;41.10
42199;DHT22;27868;45.184;5.786;2022-09-09T16:22:42;27.00;42.30
42199;DHT22;27868;45.184;5.786;2022-09-09T16:25:26;27.00;42.70
42199;DHT22;27868;45.184;5.786;2022-09-09T16:28:11;26.90;43.00
42199;DHT22;27868;45.184;5.786;2022-09-09T16:30:56;26.90;43.50
42199;DHT22;27868;45.184;5.786;2022-09-09T16:33:42;26.80;43.40
42199;DHT22;27868;45.184;5.786;2022-09-09T16:36:29;26.80;44.20
42199;DHT22;27868;45.184;5.786;2022-09-09T16:39:19;26.70;44.60
42199;DHT22;27868;45.184;5.786;2022-09-09T16:42:04;26.70;44.90
42199;DHT22;27868;45.184;5.786;2022-09-09T16:44:49;26.60;45.30
42199;DHT22;27868;45.184;5.786;2022-09-09T16:47:34;26.50;45.60
42199;DHT22;27868;45.184;5.786;2022-09-09T16:50:19;26.50;46.00
42199;DHT22;27868;45.184;5.786;2022-09-09T16:53:04;26.40;46.10
42199;DHT22;27868;45.184;5.786;2022-09-09T16:55:51;26.30;45.80
42199;DHT22;27868;45.184;5.786;2022-09-09T16:58:35;26.30;46.30
42199;DHT22;27868;45.184;5.786;2022-09-09T17:01:29;26.20;46.30
42199;DHT22;27868;45.184;5.786;2022-09-09T17:04:18;26.10;46.30
42199;DHT22;27868;45.184;5.786;2022-09-09T17:07:08;26.10;46.40
42199;DHT22;27868;45.184;5.786;2022-09-09T17:09:54;26.00;47.00
42199;DHT22;27868;45.184;5.786;2022-09-09T17:12:38;25.90;47.00
42199;DHT22;27868;45.184;5.786;2022-09-09T17:15:24;25.90;47.20
42199;DHT22;27868;45.184;5.786;2022-09-09T17:18:10;25.90;47.90
42199;DHT22;27868;45.184;5.786;2022-09-09T17:20:55;25.80;47.30
42199;DHT22;27868;45.184;5.786;2022-09-09T17:23:41;25.70;47.50
42199;DHT22;27868;45.184;5.786;2022-09-09T17:26:28;25.70;47.70
42199;DHT22;27868;45.184;5.786;2022-09-09T17:29:13;25.60;47.90
42199;DHT22;27868;45.184;5.786;2022-09-09T17:31:57;25.60;48.00
42199;DHT22;27868;45.184;5.786;2022-09-09T17:34:42;25.50;48.20
42199;DHT22;27868;45.184;5.786;2022-09-09T17:37:27;25.40;48.40
42199;DHT22;27868;45.184;5.786;2022-09-09T17:40:13;25.40;48.70
42199;DHT22;27868;45.184;5.786;2022-09-09T17:42:57;25.30;48.60
42199;DHT22;27868;45.184;5.786;2022-09-09T17:45:42;25.30;48.20
42199;DHT22;27868;45.184;5.786;2022-09-09T17:48:27;25.30;48.50
42199;DHT22;27868;45.184;5.786;2022-09-09T17:51:22;25.20;48.20
42199;DHT22;27868;45.184;5.786;2022-09-09T17:54:15;25.20;48.60
42199;DHT22;27868;45.184;5.786;2022-09-09T17:57:00;25.10;48.60
42199;DHT22;27868;45.184;5.786;2022-09-09T17:59:45;25.10;48.80
42199;DHT22;27868;45.184;5.786;2022-09-09T18:02:30;25.00;48.60
42199;DHT22;27868;45.184;5.786;2022-09-09T18:05:14;24.90;48.70
42199;DHT22;27868;45.184;5.786;2022-09-09T18:07:59;24.90;48.70
42199;DHT22;27868;45.184;5.786;2022-09-09T18:10:51;24.90;48.70
42199;DHT22;27868;45.184;5.786;2022-09-09T18:13:39;24.80;48.60
42199;DHT22;27868;45.184;5.786;2022-09-09T18:16:24;24.70;49.30
42199;DHT22;27868;45.184;5.786;2022-09-09T18:19:12;24.70;49.30
42199;DHT22;27868;45.184;5.786;2022-09-09T18:21:57;24.70;49.20
42199;DHT22;27868;45.184;5.786;2022-09-09T18:24:42;24.60;49.10
42199;DHT22;27868;45.184;5.786;2022-09-09T18:27:31;24.60;48.90
42199;DHT22;27868;45.184;5.786;2022-09-09T18:30:16;24.60;48.70
42199;DHT22;27868;45.184;5.786;2022-09-09T18:33:00;24.50;49.00
42199;DHT22;27868;45.184;5.786;2022-09-09T18:35:45;24.50;48.40
42199;DHT22;27868;45.184;5.786;2022-09-09T18:38:33;24.50;49.00
42199;DHT22;27868;45.184;5.786;2022-09-09T18:41:24;24.40;48.50
42199;DHT22;27868;45.184;5.786;2022-09-09T18:44:14;24.40;48.50
42199;DHT22;27868;45.184;5.786;2022-09-09T18:47:00;24.30;48.70
42199;DHT22;27868;45.184;5.786;2022-09-09T18:49:44;24.30;49.30
42199;DHT22;27868;45.184;5.786;2022-09-09T18:52:30;24.30;49.70
42199;DHT22;27868;45.184;5.786;2022-09-09T18:55:14;24.30;50.10
42199;DHT22;27868;45.184;5.786;2022-09-09T18:57:59;24.20;50.10
42199;DHT22;27868;45.184;5.786;2022-09-09T19:00:45;24.20;50.20
42199;DHT22;27868;45.184;5.786;2022-09-09T19:03:29;24.20;50.40
42199;DHT22;27868;45.184;5.786;2022-09-09T19:06:17;24.20;49.80
42199;DHT22;27868;45.184;5.786;2022-09-09T19:09:02;24.10;49.60
42199;DHT22;27868;45.184;5.786;2022-09-09T19:11:46;24.10;49.80
42199;DHT22;27868;45.184;5.786;2022-09-09T19:14:31;24.10;49.50
42199;DHT22;27868;45.184;5.786;2022-09-09T19:17:16;24.00;49.60
42199;DHT22;27868;45.184;5.786;2022-09-09T19:20:01;24.00;49.60
42199;DHT22;27868;45.184;5.786;2022-09-09T19:22:45;24.00;49.30
42199;DHT22;27868;45.184;5.786;2022-09-09T19:25:35;23.90;49.00
42199;DHT22;27868;45.184;5.786;2022-09-09T19:28:20;23.90;48.90
42199;DHT22;27868;45.184;5.786;2022-09-09T19:31:07;23.90;49.00